Time;durP1;ratioP1;P1;durP2;ratioP2;P2;SDS_P1;SDS_P2;PMS_P1;PMS_P2;Temp;Humidity;BMP_temperature;BMP_pressure;BME280_temperature;BME280_humidity;BME280_pressure;Samples;Min_cycle;Max_cycle;Signal;HPM_P1;HPM_P2
2024/03/26 00:00:06;;;;;;;5.18;2.35;;;;;;;6.10;51.34;98518.72;2490766;28;20034;-79
2024/03/26 00:01:19;;;;;;;4.25;2.28;;;;;;;6.02;51.99;98518.03;2496848;28;20015;-79
2024/03/26 00:02:32;;;;;;;3.75;2.83;;;;;;;5.95;52.35;98509.56;2501287;28;20022;-80
2024/03/26 00:03:46;;;;;;;3.65;2.15;;;;;;;5.91;52.00;98515.66;2502883;28;20044;-80
2024/03/26 00:04:59;;;;;;;1.80;1.55;;;;;;;5.89;52.43;98512.28;2502251;28;20042;-79
2024/03/26 00:06:12;;;;;;;3.17;2.10;;;;;;;5.85;52.79;98506.31;2507562;28;20031;-80
2024/03/26 00:07:25;;;;;;;3.25;2.78;;;;;;;5.81;52.84;98499.53;2506171;28;20043;-79
2024/03/26 00:08:39;;;;;;;4.97;1.92;;;;;;;5.82;52.55;98511.56;2505705;28;20035;-80
2024/03/26 00:09:52;;;;;;;3.83;1.90;;;;;;;5.84;52.40;98508.94;2501057;28;20045;-79
2024/03/26 00:11:05;;;;;;;4.03;1.73;;;;;;;5.89;52.07;98501.94;2500500;28;20019;-80
2024/03/26 00:12:18;;;;;;;4.05;2.42;;;;;;;5.92;52.02;98508.78;2500718;28;20026;-80
2024/03/26 00:13:31;;;;;;;4.35;2.05;;;;;;;5.93;51.68;98506.13;2501816;28;20058;-79
2024/03/26 00:14:46;;;;;;;2.35;2.05;;;;;;;5.98;51.48;98506.91;2502146;28;20026;-79
2024/03/26 00:15:59;;;;;;;3.83;2.03;;;;;;;6.03;51.40;98499.03;2487937;28;20464;-80
2024/03/26 00:17:13;;;;;;;6.15;1.83;;;;;;;6.05;51.08;98498.09;2497283;28;20038;-80
2024/03/26 00:18:26;;;;;;;2.95;1.92;;;;;;;6.08;50.94;98492.84;2501607;28;20026;-78
2024/03/26 00:19:39;;;;;;;3.05;2.13;;;;;;;6.13;50.95;98489.28;2498772;28;20061;-80
2024/03/26 00:20:52;;;;;;;4.95;3.50;;;;;;;6.15;50.88;98490.13;2502316;28;20019;-80
2024/03/26 00:22:06;;;;;;;5.03;2.00;;;;;;;6.16;50.90;98486.63;2500442;28;20054;-80
2024/03/26 00:23:19;;;;;;;4.25;2.38;;;;;;;6.15;50.78;98482.34;2500557;28;20038;-81
2024/03/26 00:24:32;;;;;;;3.97;2.10;;;;;;;6.16;51.01;98487.47;2502170;28;20338;-79
2024/03/26 00:25:45;;;;;;;4.88;1.95;;;;;;;6.15;51.33;98482.34;2500545;28;20109;-80
2024/03/26 00:26:59;;;;;;;5.35;2.25;;;;;;;6.13;51.37;98481.53;2501520;28;20023;-80
2024/03/26 00:28:12;;;;;;;4.70;2.00;;;;;;;6.10;51.41;98479.84;2489257;28;20059;-79
2024/03/26 00:29:25;;;;;;;3.70;2.28;;;;;;;6.06;51.71;98483.41;2489506;28;20026;-79
2024/03/26 00:30:38;;;;;;;1.90;1.75;;;;;;;6.02;51.74;98477.47;2486848;28;20031;-80
2024/03/26 00:31:51;;;;;;;5.65;3.83;;;;;;;6.00;51.70;98489.59;2488924;28;20070;-79
2024/03/26 00:33:05;;;;;;;1.80;1.60;;;;;;;5.97;51.74;98486.25;2500282;28;20022;-78
2024/03/26 00:34:18;;;;;;;2.78;1.77;;;;;;;5.93;52.03;98481.97;2497663;28;20026;-78
2024/03/26 00:35:35;;;;;;;6.00;2.55;;;;;;;5.88;52.26;98482.09;2494812;28;20035;-79
2024/03/26 00:36:48;;;;;;;2.33;1.80;;;;;;;5.85;52.13;98483.00;2498445;28;20023;-78
2024/03/26 00:38:01;;;;;;;5.85;1.90;;;;;;;5.81;52.37;98476.22;2496207;28;20115;-79
2024/03/26 00:39:14;;;;;;;3.38;1.77;;;;;;;5.79;52.98;98469.38;2493741;28;20039;-78
2024/03/26 00:40:28;;;;;;;3.72;2.03;;;;;;;5.77;52.18;98472.00;2501110;28;20027;-79
2024/03/26 00:41:41;;;;;;;3.00;1.88;;;;;;;5.77;52.37;98466.81;2503347;28;20465;-79
2024/03/26 00:42:54;;;;;;;2.17;1.98;;;;;;;5.76;52.46;98464.28;2497707;28;20575;-79
2024/03/26 00:44:07;;;;;;;6.47;2.15;;;;;;;5.74;52.57;98460.88;2499416;28;20054;-79
2024/03/26 00:45:20;;;;;;;3.22;2.35;;;;;;;5.70;52.71;98462.69;2494875;28;20022;-80
2024/03/26 00:46:34;;;;;;;4.47;2.30;;;;;;;5.65;53.08;98454.16;2488577;28;20019;-80
2024/03/26 00:47:47;;;;;;;5.03;1.92;;;;;;;5.60;53.04;98453.44;2488795;28;20070;-79
2024/03/26 00:49:00;;;;;;;5.47;2.10;;;;;;;5.53;53.42;98447.56;2496159;28;20488;-79
2024/03/26 00:50:13;;;;;;;3.30;1.90;;;;;;;5.44;53.79;98446.03;2501231;28;20536;-78
2024/03/26 00:51:27;;;;;;;4.50;1.77;;;;;;;5.37;54.22;98447.06;2495714;28;20185;-80
2024/03/26 00:52:40;;;;;;;6.20;3.00;;;;;;;5.29;54.56;98448.13;2495769;28;20429;-80
2024/03/26 00:53:53;;;;;;;6.00;2.03;;;;;;;5.22;55.07;98448.25;2500217;28;20488;-80
2024/03/26 00:55:07;;;;;;;4.88;2.30;;;;;;;5.14;55.21;98442.41;2500218;28;20031;-79
2024/03/26 00:56:20;;;;;;;2.35;2.00;;;;;;;5.06;55.82;98446.91;2490720;28;20027;-79
2024/03/26 00:57:33;;;;;;;3.08;1.95;;;;;;;5.00;56.36;98447.03;2494505;28;20035;-79
2024/03/26 00:58:47;;;;;;;5.97;2.42;;;;;;;4.95;57.01;98449.69;2495644;28;20121;-79
2024/03/26 01:00:01;;;;;;;6.13;2.30;;;;;;;4.89;57.49;98444.66;2494715;28;20043;-79
2024/03/26 01:01:14;;;;;;;2.75;1.75;;;;;;;4.83;57.75;98447.41;2489778;28;20485;-80
2024/03/26 01:02:28;;;;;;;2.30;1.88;;;;;;;4.78;58.03;98444.06;2495365;28;20023;-79
2024/03/26 01:03:41;;;;;;;2.30;2.10;;;;;;;4.73;58.21;98453.63;2494788;28;20051;-80
2024/03/26 01:04:54;;;;;;;3.95;3.03;;;;;;;4.67;58.49;98448.56;2501746;28;20062;-80
2024/03/26 01:06:07;;;;;;;5.60;2.22;;;;;;;4.61;58.68;98456.47;2494177;28;20023;-79
2024/03/26 01:07:21;;;;;;;2.28;1.95;;;;;;;4.56;58.89;98459.13;2484546;28;20053;-79
2024/03/26 01:08:34;;;;;;;2.55;2.22;;;;;;;4.51;59.24;98458.34;2488118;28;20022;-78
2024/03/26 01:09:47;;;;;;;3.88;1.92;;;;;;;4.45;59.21;98453.31;2497300;28;20023;-81
2024/03/26 01:11:00;;;;;;;2.80;2.60;;;;;;;4.41;58.81;98452.50;2499094;28;20061;-79
2024/03/26 01:12:13;;;;;;;6.35;2.28;;;;;;;4.36;58.95;98455.22;2501949;28;20023;-80
2024/03/26 01:13:27;;;;;;;4.13;2.28;;;;;;;4.35;58.57;98460.38;2493074;28;20079;-80
2024/03/26 01:14:40;;;;;;;3.92;3.25;;;;;;;4.32;58.90;98455.28;2496186;28;20031;-80
2024/03/26 01:15:53;;;;;;;3.20;2.30;;;;;;;4.29;59.36;98457.94;2499675;28;20046;-80
2024/03/26 01:17:06;;;;;;;2.25;2.05;;;;;;;4.26;59.59;98451.09;2503321;28;20027;-80
2024/03/26 01:18:20;;;;;;;3.47;2.40;;;;;;;4.26;59.85;98457.97;2503675;28;20045;-80
2024/03/26 01:19:33;;;;;;;4.65;2.53;;;;;;;4.23;60.23;98447.69;2501511;28;20030;-79
2024/03/26 01:20:46;;;;;;;4.63;2.35;;;;;;;4.22;60.47;98449.44;2490582;28;20102;-80
2024/03/26 01:21:59;;;;;;;2.80;2.28;;;;;;;4.19;60.29;98449.50;2493724;28;20026;-80
2024/03/26 01:23:12;;;;;;;5.65;3.50;;;;;;;4.17;60.42;98455.56;2494847;28;20034;-79
2024/03/26 01:24:26;;;;;;;4.07;2.35;;;;;;;4.12;60.46;98451.31;2496325;28;20031;-79
2024/03/26 01:25:39;;;;;;;6.63;2.20;;;;;;;4.09;60.58;98445.38;2500667;28;20015;-79
2024/03/26 01:26:52;;;;;;;3.65;2.15;;;;;;;4.07;60.73;98441.97;2495181;28;20031;-81
2024/03/26 01:28:05;;;;;;;5.45;2.53;;;;;;;4.03;60.99;98437.75;2494460;28;20046;-81
2024/03/26 01:29:19;;;;;;;4.40;3.25;;;;;;;3.98;61.07;98434.41;2494961;28;20038;-79
2024/03/26 01:30:32;;;;;;;4.60;2.58;;;;;;;3.97;61.05;98427.53;2502052;28;20031;-79
2024/03/26 01:31:45;;;;;;;10.30;2.97;;;;;;;3.93;60.90;98430.16;2491349;28;20082;-79
2024/03/26 01:32:58;;;;;;;3.95;1.70;;;;;;;3.93;61.01;98430.16;2496808;28;20089;-80
2024/03/26 01:34:12;;;;;;;6.82;3.58;;;;;;;3.92;60.84;98428.47;2495872;28;20035;-79
2024/03/26 01:35:26;;;;;;;2.50;2.08;;;;;;;3.96;60.78;98431.00;2495250;28;20054;-79
2024/03/26 01:36:39;;;;;;;5.45;2.95;;;;;;;3.99;60.80;98430.94;2500851;28;20027;-78
2024/03/26 01:37:53;;;;;;;4.72;2.50;;;;;;;4.02;60.40;98420.53;2502388;28;20035;-80
2024/03/26 01:39:06;;;;;;;3.00;1.92;;;;;;;4.06;60.56;98411.88;2501166;28;20049;-79
2024/03/26 01:40:22;;;;;;;3.03;2.55;;;;;;;4.11;60.26;98417.81;2496424;28;20026;-79
2024/03/26 01:41:36;;;;;;;4.05;2.38;;;;;;;4.16;60.04;98410.84;2500461;28;20463;-79
2024/03/26 01:42:50;;;;;;;3.17;2.10;;;;;;;4.21;60.13;98416.75;2504381;28;20027;-79
2024/03/26 01:44:04;;;;;;;3.47;2.58;;;;;;;4.22;60.23;98408.13;2498614;28;20038;-80
2024/03/26 01:45:17;;;;;;;4.90;2.72;;;;;;;4.21;60.21;98413.31;2489863;28;20062;-80
2024/03/26 01:46:35;;;;;;;3.92;2.65;;;;;;;4.19;60.25;98409.94;2487357;28;20452;-80
2024/03/26 01:47:48;;;;;;;2.10;1.90;;;;;;;4.16;60.48;98400.50;2499014;28;20663;-81
2024/03/26 01:49:04;;;;;;;2.83;2.55;;;;;;;4.15;60.23;98402.22;2496259;28;20026;-80
2024/03/26 01:50:17;;;;;;;1.83;1.73;;;;;;;4.13;60.14;98395.38;2496751;28;20022;-79
2024/03/26 01:51:31;;;;;;;6.05;3.30;;;;;;;4.12;60.27;98402.28;2487215;28;20054;-80
2024/03/26 01:52:45;;;;;;;4.50;2.72;;;;;;;4.12;60.30;98404.84;2496719;28;20029;-80
2024/03/26 01:54:03;;;;;;;4.15;2.22;;;;;;;4.11;60.50;98399.75;2505587;28;20030;-80
2024/03/26 01:55:17;;;;;;;4.63;2.33;;;;;;;4.09;60.48;98404.06;2500899;28;20031;-80
2024/03/26 01:56:30;;;;;;;3.83;2.33;;;;;;;4.05;60.63;98402.41;2497108;28;20078;-79
2024/03/26 01:57:45;;;;;;;2.75;2.33;;;;;;;4.04;61.02;98401.56;2509370;28;20097;-80
2024/03/26 01:58:58;;;;;;;5.97;2.58;;;;;;;4.04;61.28;98396.41;2509769;28;20030;-79
2024/03/26 02:00:14;;;;;;;7.03;3.53;;;;;;;4.04;61.57;98393.84;2500445;28;20043;-80
2024/03/26 02:01:27;;;;;;;3.47;2.22;;;;;;;4.04;61.84;98405.88;2504685;28;20053;-79
2024/03/26 02:02:41;;;;;;;6.72;2.30;;;;;;;4.01;62.40;98409.38;2499242;28;20085;-78
2024/03/26 02:03:54;;;;;;;5.57;2.15;;;;;;;4.01;62.54;98408.53;2489064;28;20031;-79
2024/03/26 02:05:08;;;;;;;5.90;3.83;;;;;;;4.00;62.51;98409.41;2500951;28;20367;-81
2024/03/26 02:06:21;;;;;;;2.90;2.45;;;;;;;3.97;62.63;98410.31;2491533;29;20031;-81
2024/03/26 02:07:35;;;;;;;4.40;3.30;;;;;;;3.96;62.77;98407.75;2491037;28;20062;-80
2024/03/26 02:08:48;;;;;;;2.97;2.15;;;;;;;3.90;62.62;98404.41;2507741;28;20030;-81
2024/03/26 02:10:02;;;;;;;3.30;2.67;;;;;;;3.88;62.66;98402.75;2500687;28;20035;-81
2024/03/26 02:11:15;;;;;;;3.42;2.40;;;;;;;3.86;62.79;98404.50;2497375;28;20129;-82
2024/03/26 02:12:28;;;;;;;6.95;2.55;;;;;;;3.86;62.69;98405.34;2490789;29;20106;-83
2024/03/26 02:13:46;;;;;;;6.03;2.35;;;;;;;3.84;62.90;98401.91;2494390;28;20122;-82
2024/03/26 02:14:59;;;;;;;2.45;2.22;;;;;;;3.82;62.80;98393.38;2500209;28;20026;-82
2024/03/26 02:16:13;;;;;;;3.83;2.40;;;;;;;3.78;62.76;98394.31;2495920;29;20035;-81
2024/03/26 02:17:26;;;;;;;3.65;3.13;;;;;;;3.75;63.12;98386.63;2497810;28;20038;-83
2024/03/26 02:18:39;;;;;;;4.85;2.20;;;;;;;3.73;63.12;98388.38;2509046;28;20034;-82
2024/03/26 02:19:53;;;;;;;8.95;2.20;;;;;;;3.72;63.33;98391.84;2507076;28;20062;-82
2024/03/26 02:21:06;;;;;;;3.65;2.33;;;;;;;3.69;63.59;98390.16;2501722;28;20077;-82
2024/03/26 02:22:20;;;;;;;4.57;2.35;;;;;;;3.65;63.54;98388.50;2498322;28;20038;-81
2024/03/26 02:23:33;;;;;;;2.63;1.98;;;;;;;3.66;63.65;98384.19;2491231;29;20587;-81
2024/03/26 02:24:47;;;;;;;5.63;2.75;;;;;;;3.67;63.84;98378.16;2499628;28;20121;-80
2024/03/26 02:26:00;;;;;;;3.85;2.63;;;;;;;3.66;63.82;98376.44;2490696;29;20515;-81
2024/03/26 02:27:14;;;;;;;2.97;2.60;;;;;;;3.68;64.01;98382.44;2501937;28;20061;-81
2024/03/26 02:28:27;;;;;;;4.30;2.40;;;;;;;3.68;64.20;98382.44;2506535;28;20035;-82
2024/03/26 02:29:40;;;;;;;4.80;2.15;;;;;;;3.68;64.32;98387.59;2506567;28;20037;-79
2024/03/26 02:30:53;;;;;;;3.05;2.40;;;;;;;3.68;64.49;98388.44;2499788;28;20022;-81
2024/03/26 02:32:07;;;;;;;3.67;2.38;;;;;;;3.68;64.62;98390.19;2503521;28;20065;-81
2024/03/26 02:33:20;;;;;;;5.90;2.40;;;;;;;3.67;64.42;98391.06;2509700;28;20026;-81
2024/03/26 02:34:33;;;;;;;2.78;2.05;;;;;;;3.63;64.38;98386.81;2511266;28;20033;-81
2024/03/26 02:35:46;;;;;;;4.50;2.50;;;;;;;3.62;64.48;98382.56;2516059;28;20033;-82
2024/03/26 02:37:00;;;;;;;4.22;2.03;;;;;;;3.62;64.88;98377.41;2506517;28;20512;-80
2024/03/26 02:38:13;;;;;;;8.98;3.25;;;;;;;3.62;64.34;98379.97;2510453;28;20468;-81
2024/03/26 02:39:26;;;;;;;3.15;2.35;;;;;;;3.61;64.59;98373.94;2504664;28;20034;-81
2024/03/26 02:40:39;;;;;;;4.43;2.40;;;;;;;3.61;64.62;98380.84;2509866;28;20096;-81
2024/03/26 02:41:53;;;;;;;3.83;2.85;;;;;;;3.57;64.64;98374.03;2507169;28;20326;-80
2024/03/26 02:43:06;;;;;;;3.03;2.25;;;;;;;3.53;64.88;98373.22;2496628;28;20556;-81
2024/03/26 02:44:19;;;;;;;6.03;2.10;;;;;;;3.50;65.02;98375.88;2499263;28;20030;-82
2024/03/26 02:45:33;;;;;;;3.25;2.65;;;;;;;3.48;65.15;98369.88;2497596;29;20051;-80
2024/03/26 02:46:46;;;;;;;5.15;2.55;;;;;;;3.44;65.18;98368.25;2510520;28;20026;-81
2024/03/26 02:47:59;;;;;;;3.85;3.53;;;;;;;3.39;65.40;98370.88;2515896;28;20043;-82
2024/03/26 02:49:13;;;;;;;2.90;2.70;;;;;;;3.34;65.49;98375.25;2523156;28;20031;-81
2024/03/26 02:50:26;;;;;;;10.20;3.13;;;;;;;3.33;65.61;98367.53;2522324;28;20014;-82
2024/03/26 02:51:39;;;;;;;3.33;3.05;;;;;;;3.30;65.84;98373.59;2498316;28;20039;-82
2024/03/26 02:52:52;;;;;;;5.28;2.33;;;;;;;3.30;66.12;98365.88;2507212;28;20742;-82
2024/03/26 02:54:05;;;;;;;2.80;2.28;;;;;;;3.29;66.04;98366.75;2507302;28;20027;-82
2024/03/26 02:55:19;;;;;;;4.88;2.88;;;;;;;3.25;66.24;98368.53;2505935;28;20719;-81
2024/03/26 02:56:32;;;;;;;3.92;2.80;;;;;;;3.23;66.22;98369.44;2513985;28;20065;-80
2024/03/26 02:57:45;;;;;;;1.85;1.65;;;;;;;3.17;66.42;98366.94;2514994;28;20738;-81
2024/03/26 02:58:58;;;;;;;2.67;2.22;;;;;;;3.16;66.51;98372.97;2496305;28;20504;-82
2024/03/26 03:00:12;;;;;;;3.40;2.20;;;;;;;3.15;66.71;98373.84;2499044;28;20126;-81
2024/03/26 03:01:25;;;;;;;3.08;2.08;;;;;;;3.14;66.93;98369.56;2508996;28;20035;-81
2024/03/26 03:02:39;;;;;;;4.25;2.53;;;;;;;3.11;66.87;98375.63;2506378;28;20034;-80
2024/03/26 03:03:52;;;;;;;2.72;2.28;;;;;;;3.06;67.02;98367.94;2500392;28;20059;-81
2024/03/26 03:05:05;;;;;;;5.18;2.50;;;;;;;3.03;67.10;98367.16;2493825;28;20574;-81
2024/03/26 03:06:19;;;;;;;2.90;2.00;;;;;;;3.01;66.90;98369.75;2502556;28;20672;-80
2024/03/26 03:07:32;;;;;;;5.82;2.90;;;;;;;3.00;66.76;98362.91;2508117;28;20058;-81
2024/03/26 03:08:45;;;;;;;3.60;2.80;;;;;;;3.01;66.55;98361.16;2515138;28;20034;-81
2024/03/26 03:09:58;;;;;;;7.70;3.38;;;;;;;3.02;66.53;98358.59;2495963;29;20093;-81
2024/03/26 03:11:11;;;;;;;7.28;2.67;;;;;;;3.03;66.48;98365.44;2499447;28;20023;-80
2024/03/26 03:12:25;;;;;;;9.35;2.92;;;;;;;3.05;66.71;98360.25;2506242;28;20031;-81
2024/03/26 03:13:38;;;;;;;4.95;3.03;;;;;;;3.06;66.86;98365.38;2495817;29;20026;-80
2024/03/26 03:14:51;;;;;;;5.50;2.83;;;;;;;3.10;66.96;98365.31;2499028;28;20033;-80
2024/03/26 03:16:04;;;;;;;6.53;4.20;;;;;;;3.09;67.08;98356.75;2505550;28;20061;-81
2024/03/26 03:17:18;;;;;;;3.15;2.45;;;;;;;3.10;67.12;98357.59;2496680;28;20019;-81
2024/03/26 03:18:31;;;;;;;4.53;3.53;;;;;;;3.11;67.55;98359.31;2496199;28;20022;-81
2024/03/26 03:19:44;;;;;;;5.93;3.30;;;;;;;3.11;67.45;98357.59;2499801;28;20082;-80
2024/03/26 03:20:57;;;;;;;2.88;2.28;;;;;;;3.10;67.54;98361.03;2506385;28;20097;-82
2024/03/26 03:22:11;;;;;;;4.80;2.97;;;;;;;3.08;67.47;98349.06;2507431;28;20026;-82
2024/03/26 03:23:26;;;;;;;4.68;2.80;;;;;;;3.06;67.58;98354.22;2496822;28;20028;-82
2024/03/26 03:24:39;;;;;;;3.60;2.38;;;;;;;3.03;67.24;98351.69;2502727;28;20022;-81
2024/03/26 03:25:56;;;;;;;4.28;2.70;;;;;;;3.01;67.33;98359.44;2500949;28;20057;-82
2024/03/26 03:27:09;;;;;;;4.45;3.47;;;;;;;3.01;67.44;98364.59;2496747;28;20019;-81
2024/03/26 03:28:23;;;;;;;4.28;2.90;;;;;;;3.04;67.62;98363.69;2489361;28;20186;-81
2024/03/26 03:29:36;;;;;;;3.13;2.38;;;;;;;3.05;67.62;98361.09;2500577;28;20105;-82
2024/03/26 03:30:49;;;;;;;3.80;2.85;;;;;;;3.05;67.46;98358.53;2492706;28;20018;-80
2024/03/26 03:32:03;;;;;;;2.60;2.40;;;;;;;3.07;67.92;98353.34;2503219;28;20077;-82
2024/03/26 03:33:16;;;;;;;2.50;2.30;;;;;;;3.11;67.94;98349.84;2508920;28;20022;-81
2024/03/26 03:34:29;;;;;;;3.40;2.55;;;;;;;3.15;67.44;98350.63;2499999;28;20050;-82
2024/03/26 03:35:42;;;;;;;4.55;2.83;;;;;;;3.19;67.75;98354.88;2501894;28;20034;-82
2024/03/26 03:36:56;;;;;;;2.45;2.15;;;;;;;3.23;67.86;98364.28;2503574;28;20027;-81
2024/03/26 03:38:09;;;;;;;3.25;2.58;;;;;;;3.27;67.80;98365.91;2498940;28;20413;-81
2024/03/26 03:39:23;;;;;;;4.85;3.00;;;;;;;3.33;67.67;98367.53;2494528;28;20035;-81
2024/03/26 03:40:36;;;;;;;8.35;3.42;;;;;;;3.34;67.65;98358.94;2499053;28;20026;-80
2024/03/26 03:41:49;;;;;;;4.18;3.05;;;;;;;3.36;67.91;98357.22;2496057;29;20057;-81
2024/03/26 03:43:03;;;;;;;2.70;2.10;;;;;;;3.37;67.64;98364.91;2482966;28;20023;-81
2024/03/26 03:44:16;;;;;;;7.00;2.53;;;;;;;3.40;67.43;98359.69;2499019;28;20380;-82
2024/03/26 03:45:29;;;;;;;4.72;2.90;;;;;;;3.44;67.16;98363.09;2512690;28;20078;-81
2024/03/26 03:46:42;;;;;;;5.13;2.97;;;;;;;3.46;67.18;98359.59;2508272;28;20504;-79
2024/03/26 03:47:55;;;;;;;2.20;2.00;;;;;;;3.49;67.06;98356.97;2502314;28;20508;-81
2024/03/26 03:49:09;;;;;;;5.13;2.83;;;;;;;3.53;66.78;98362.91;2502357;28;20042;-82
2024/03/26 03:50:22;;;;;;;3.08;2.33;;;;;;;3.57;66.73;98359.41;2488907;29;20385;-80
2024/03/26 03:51:35;;;;;;;2.90;2.63;;;;;;;3.61;66.88;98355.88;2502325;28;20489;-81
2024/03/26 03:52:48;;;;;;;3.28;2.50;;;;;;;3.64;66.64;98358.44;2506627;28;20105;-82
2024/03/26 03:54:02;;;;;;;3.47;2.72;;;;;;;3.67;66.79;98352.38;2505529;28;20461;-81
2024/03/26 03:55:15;;;;;;;2.42;2.15;;;;;;;3.70;66.73;98348.00;2504134;28;20026;-80
2024/03/26 03:56:28;;;;;;;4.00;3.03;;;;;;;3.74;66.67;98351.38;2488331;29;20477;-82
2024/03/26 03:57:42;;;;;;;2.97;2.13;;;;;;;3.76;66.59;98349.63;2497204;28;20081;-82
2024/03/26 03:58:55;;;;;;;3.85;3.00;;;;;;;3.78;66.68;98349.59;2494642;29;20027;-81
2024/03/26 04:00:09;;;;;;;4.30;2.90;;;;;;;3.81;66.58;98346.97;2494594;28;20042;-81
2024/03/26 04:01:22;;;;;;;4.45;2.70;;;;;;;3.82;66.58;98352.09;2494489;29;20099;-81
2024/03/26 04:02:35;;;;;;;2.95;2.45;;;;;;;3.86;66.54;98350.31;2497567;28;20023;-80
2024/03/26 04:03:48;;;;;;;3.95;2.65;;;;;;;3.90;66.51;98346.81;2504686;28;20134;-81
2024/03/26 04:05:02;;;;;;;3.42;3.03;;;;;;;3.93;66.52;98345.00;2503846;28;20026;-81
2024/03/26 04:06:15;;;;;;;4.35;2.58;;;;;;;3.99;66.92;98345.75;2505403;28;20578;-80
2024/03/26 04:07:29;;;;;;;4.78;2.80;;;;;;;4.03;66.93;98348.25;2495510;28;20086;-81
2024/03/26 04:08:42;;;;;;;4.00;2.83;;;;;;;4.07;66.92;98343.88;2500897;28;20019;-80
2024/03/26 04:09:55;;;;;;;4.43;2.20;;;;;;;4.11;67.14;98337.78;2506616;28;20109;-81
2024/03/26 04:11:08;;;;;;;5.25;2.83;;;;;;;4.13;67.13;98328.25;2509148;28;20029;-80
2024/03/26 04:12:22;;;;;;;2.83;2.63;;;;;;;4.16;67.08;98330.81;2514894;28;20022;-80
2024/03/26 04:13:35;;;;;;;2.75;1.90;;;;;;;4.18;67.33;98336.75;2514610;28;20037;-80
2024/03/26 04:14:48;;;;;;;4.32;2.40;;;;;;;4.17;67.36;98332.50;2507399;28;20022;-80
2024/03/26 04:16:04;;;;;;;7.78;2.80;;;;;;;4.19;67.39;98340.22;2496487;28;20041;-79
2024/03/26 04:17:18;;;;;;;5.05;2.60;;;;;;;4.20;67.68;98332.44;2507756;28;20119;-80
2024/03/26 04:18:31;;;;;;;4.78;3.30;;;;;;;4.23;67.74;98339.25;2513718;28;20076;-80
2024/03/26 04:19:44;;;;;;;3.75;2.58;;;;;;;4.25;67.82;98329.75;2514254;28;20290;-78
2024/03/26 04:20:57;;;;;;;4.00;2.35;;;;;;;4.24;67.79;98330.66;2513955;28;20033;-79
2024/03/26 04:22:10;;;;;;;4.57;3.10;;;;;;;4.22;67.50;98322.09;2515384;28;20022;-80
2024/03/26 04:23:24;;;;;;;3.42;2.80;;;;;;;4.20;67.38;98329.00;2514282;28;20436;-81
2024/03/26 04:24:37;;;;;;;3.22;2.92;;;;;;;4.17;67.02;98322.16;2515025;28;20022;-80
2024/03/26 04:25:57;;;;;;;12.70;2.70;;;;;;;4.15;67.33;98332.50;2515009;28;20141;-80
2024/03/26 04:27:11;;;;;;;5.13;2.92;;;;;;;4.14;67.20;98341.16;2499659;28;20026;-80
2024/03/26 04:28:26;;;;;;;4.63;2.90;;;;;;;4.15;67.31;98337.69;2502013;28;20018;-80
2024/03/26 04:29:40;;;;;;;3.70;2.83;;;;;;;4.17;67.41;98335.06;2508297;28;20365;-80
2024/03/26 04:30:54;;;;;;;4.15;2.85;;;;;;;4.19;67.31;98342.81;2507395;28;20057;-80
2024/03/26 04:32:07;;;;;;;5.53;2.75;;;;;;;4.20;67.28;98324.69;2498429;28;20031;-80
2024/03/26 04:33:20;;;;;;;3.05;2.72;;;;;;;4.23;67.41;98334.94;2508633;28;20037;-80
2024/03/26 04:34:34;;;;;;;3.53;3.00;;;;;;;4.26;67.22;98334.03;2515454;28;20017;-80
2024/03/26 04:35:47;;;;;;;4.47;3.10;;;;;;;4.27;67.18;98336.59;2513720;28;20496;-80
2024/03/26 04:37:03;;;;;;;4.18;3.30;;;;;;;4.27;66.92;98343.50;2504857;28;20117;-81
2024/03/26 04:38:16;;;;;;;4.22;2.50;;;;;;;4.26;66.97;98340.06;2498728;28;20037;-79
2024/03/26 04:39:30;;;;;;;7.63;3.55;;;;;;;4.24;66.87;98341.81;2496072;28;20038;-80
2024/03/26 04:40:44;;;;;;;3.55;3.17;;;;;;;4.25;66.72;98340.94;2500219;28;20030;-80
2024/03/26 04:41:57;;;;;;;3.60;3.00;;;;;;;4.26;66.88;98334.03;2498381;28;20517;-80
2024/03/26 04:43:11;;;;;;;6.50;3.47;;;;;;;4.27;67.17;98339.19;2506287;28;20035;-80
2024/03/26 04:44:24;;;;;;;7.60;2.88;;;;;;;4.30;67.14;98340.84;2504704;28;20118;-82
2024/03/26 04:45:38;;;;;;;5.40;2.90;;;;;;;4.31;67.34;98342.53;2510639;28;20070;-81
2024/03/26 04:46:51;;;;;;;4.32;3.30;;;;;;;4.32;67.25;98345.09;2494159;28;20031;-82
2024/03/26 04:48:04;;;;;;;5.25;2.40;;;;;;;4.31;67.09;98348.56;2497088;28;20039;-81
2024/03/26 04:49:18;;;;;;;2.88;2.45;;;;;;;4.29;67.43;98355.50;2503857;28;20030;-82
2024/03/26 04:50:31;;;;;;;4.35;3.00;;;;;;;4.30;67.41;98346.84;2503763;28;20027;-81
2024/03/26 04:51:44;;;;;;;3.40;2.55;;;;;;;4.31;67.57;98352.88;2483533;28;20042;-81
2024/03/26 04:52:57;;;;;;;5.53;2.70;;;;;;;4.32;67.29;98346.84;2493643;29;20086;-81
2024/03/26 04:54:11;;;;;;;3.30;2.50;;;;;;;4.32;67.40;98344.25;2497091;28;20030;-81
2024/03/26 04:55:25;;;;;;;3.50;3.05;;;;;;;4.32;67.73;98342.50;2503805;28;20462;-82
2024/03/26 04:56:38;;;;;;;4.32;3.83;;;;;;;4.34;67.93;98338.19;2503238;28;20030;-81
2024/03/26 04:57:51;;;;;;;4.50;3.72;;;;;;;4.36;67.65;98332.97;2497631;28;20034;-82
2024/03/26 04:59:05;;;;;;;8.15;3.95;;;;;;;4.36;67.70;98328.66;2505425;28;20149;-82
2024/03/26 05:00:18;;;;;;;4.65;4.20;;;;;;;4.37;67.74;98334.69;2489050;28;20031;-81
2024/03/26 05:01:31;;;;;;;5.30;3.40;;;;;;;4.39;67.64;98340.66;2494263;28;20157;-82
2024/03/26 05:02:45;;;;;;;4.03;2.95;;;;;;;4.40;67.72;98336.34;2494201;28;20062;-79
2024/03/26 05:03:59;;;;;;;8.02;5.50;;;;;;;4.42;67.65;98347.50;2493147;28;20140;-79
2024/03/26 05:05:12;;;;;;;4.22;3.10;;;;;;;4.46;68.00;98356.88;2493220;29;20581;-80
2024/03/26 05:06:25;;;;;;;3.40;2.55;;;;;;;4.50;68.04;98343.03;2497246;28;20057;-81
2024/03/26 05:07:39;;;;;;;5.32;2.75;;;;;;;4.55;68.10;98354.94;2509757;28;20039;-81
2024/03/26 05:08:52;;;;;;;4.43;2.75;;;;;;;4.53;67.62;98345.53;2494883;28;20051;-81
2024/03/26 05:10:09;;;;;;;4.38;2.92;;;;;;;4.49;67.77;98349.94;2502529;28;20055;-81
2024/03/26 05:11:23;;;;;;;4.07;2.55;;;;;;;4.44;67.69;98346.59;2492649;28;20497;-81
2024/03/26 05:12:36;;;;;;;5.63;3.67;;;;;;;4.44;67.50;98344.00;2490393;28;20026;-79
2024/03/26 05:13:49;;;;;;;6.10;3.38;;;;;;;4.44;67.34;98340.56;2502078;28;20075;-81
2024/03/26 05:15:02;;;;;;;6.20;3.13;;;;;;;4.45;67.43;98339.69;2507891;28;20438;-80
2024/03/26 05:16:16;;;;;;;4.65;3.22;;;;;;;4.47;67.33;98338.78;2508046;28;20356;-82
2024/03/26 05:17:29;;;;;;;5.10;3.25;;;;;;;4.49;67.51;98337.00;2497107;28;20027;-81
2024/03/26 05:18:42;;;;;;;4.13;3.00;;;;;;;4.53;67.59;98337.78;2497765;28;20621;-81
2024/03/26 05:19:57;;;;;;;5.30;3.85;;;;;;;4.55;67.59;98338.59;2502443;28;20035;-80
2024/03/26 05:21:10;;;;;;;5.75;3.13;;;;;;;4.54;67.29;98334.31;2496982;28;20026;-79
2024/03/26 05:22:23;;;;;;;3.17;2.67;;;;;;;4.53;67.41;98333.47;2498503;28;20023;-80
2024/03/26 05:23:37;;;;;;;5.45;3.55;;;;;;;4.52;67.36;98336.94;2499482;28;20031;-79
2024/03/26 05:24:51;;;;;;;6.40;2.67;;;;;;;4.52;67.13;98338.69;2503041;28;20108;-80
2024/03/26 05:26:04;;;;;;;5.45;3.65;;;;;;;4.50;67.37;98338.69;2496550;28;20035;-82
2024/03/26 05:27:17;;;;;;;4.05;2.80;;;;;;;4.53;67.87;98337.78;2496798;28;20054;-80
2024/03/26 05:28:31;;;;;;;4.60;3.10;;;;;;;4.54;67.93;98334.31;2496522;28;20077;-81
2024/03/26 05:29:44;;;;;;;5.90;3.38;;;;;;;4.54;67.88;98329.13;2510224;28;20068;-80
2024/03/26 05:31:14;;;;;;;8.10;4.07;;;;;;;4.55;67.73;98336.88;2494936;28;20038;-81
2024/03/26 05:32:27;;;;;;;6.10;2.67;;;;;;;4.56;67.86;98340.31;2499497;28;20129;-80
2024/03/26 05:33:41;;;;;;;4.22;2.65;;;;;;;4.55;67.75;98325.69;2487090;29;20027;-82
2024/03/26 05:34:54;;;;;;;3.63;2.92;;;;;;;4.55;67.62;98323.94;2497506;28;20073;-80
2024/03/26 05:36:08;;;;;;;4.65;2.47;;;;;;;4.54;67.32;98323.97;2502308;28;20039;-82
2024/03/26 05:37:22;;;;;;;4.43;3.00;;;;;;;4.51;67.49;98319.72;2497361;28;20496;-81
2024/03/26 05:38:35;;;;;;;4.57;2.80;;;;;;;4.46;67.20;98311.22;2496429;28;20467;-82
2024/03/26 05:39:48;;;;;;;11.30;3.20;;;;;;;4.44;67.42;98322.47;2486914;28;20519;-81
2024/03/26 05:41:01;;;;;;;6.20;3.50;;;;;;;4.42;67.37;98325.09;2497843;28;20440;-81
2024/03/26 05:42:14;;;;;;;5.03;2.42;;;;;;;4.42;67.80;98319.09;2500272;28;20480;-81
2024/03/26 05:43:28;;;;;;;7.80;3.03;;;;;;;4.42;67.68;98324.25;2500143;28;20039;-80
2024/03/26 05:44:41;;;;;;;4.78;3.28;;;;;;;4.43;68.00;98326.78;2496451;28;20061;-80
2024/03/26 05:45:54;;;;;;;3.70;2.83;;;;;;;4.44;67.63;98322.47;2492198;29;20059;-81
2024/03/26 05:47:07;;;;;;;5.22;3.65;;;;;;;4.45;67.83;98322.44;2495703;28;20070;-82
2024/03/26 05:48:21;;;;;;;3.83;2.78;;;;;;;4.49;67.42;98318.06;2496688;28;20094;-80
2024/03/26 05:49:34;;;;;;;3.30;2.80;;;;;;;4.52;67.56;98311.13;2509508;28;20045;-82